createdAt,value
2018-03-30T00:01:44.058Z,13.83
2018-03-30T00:04:09.821Z,13.45
2018-03-30T00:06:35.580Z,15.73
2018-03-30T00:09:01.336Z,14.33
2018-03-30T00:11:27.344Z,14.50
2018-03-30T00:13:53.129Z,16.35
2018-03-30T00:16:18.894Z,14.03
2018-03-30T00:18:44.666Z,14.60
2018-03-30T00:21:10.463Z,16.33
2018-03-30T00:23:36.222Z,15.17
2018-03-30T00:26:01.992Z,14.57
2018-03-30T00:28:28.114Z,15.30
2018-03-30T00:30:53.982Z,15.85
2018-03-30T00:33:19.785Z,15.50
2018-03-30T00:35:45.574Z,14.00
2018-03-30T00:38:11.364Z,15.40
2018-03-30T00:40:37.161Z,14.00
2018-03-30T00:43:02.965Z,14.83
2018-03-30T00:45:28.804Z,14.40
2018-03-30T00:47:54.645Z,13.70
2018-03-30T00:50:20.422Z,15.00
2018-03-30T00:52:46.190Z,14.93
2018-03-30T00:55:11.989Z,14.63
2018-03-30T00:57:37.765Z,15.67
2018-03-30T01:00:03.563Z,16.70
2018-03-30T01:02:29.761Z,16.17
2018-03-30T01:04:55.521Z,15.45
2018-03-30T01:07:21.297Z,16.70
2018-03-30T01:09:47.077Z,17.97
2018-03-30T01:12:12.849Z,17.77
2018-03-30T01:14:38.638Z,16.97
2018-03-30T01:17:04.416Z,17.37
2018-03-30T01:19:30.216Z,17.53
2018-03-30T01:21:55.987Z,17.87
2018-03-30T01:24:21.748Z,17.97
2018-03-30T01:29:31.793Z,17.30
2018-03-30T01:31:57.592Z,19.92
2018-03-30T01:34:23.356Z,17.77
2018-03-30T01:36:49.145Z,19.97
2018-03-30T01:39:14.905Z,17.47
2018-03-30T01:41:40.686Z,18.67
2018-03-30T01:44:06.456Z,18.40
2018-03-30T01:46:32.227Z,19.63
2018-03-30T01:48:57.967Z,18.67
2018-03-30T01:51:23.743Z,20.00
2018-03-30T01:53:49.518Z,19.47
2018-03-30T01:56:15.272Z,18.87
2018-03-30T01:58:41.112Z,19.63
2018-03-30T02:01:06.856Z,18.60
2018-03-30T02:03:32.609Z,17.40
2018-03-30T02:05:58.376Z,21.97
2018-03-30T02:08:24.133Z,20.73
2018-03-30T02:10:49.892Z,19.43
2018-03-30T02:13:15.673Z,19.57
2018-03-30T02:15:41.429Z,18.07
2018-03-30T02:18:07.195Z,18.20
2018-03-30T02:20:32.965Z,19.67
2018-03-30T02:22:58.702Z,19.40
2018-03-30T02:25:24.460Z,19.00
2018-03-30T02:27:50.828Z,17.07
2018-03-30T02:30:16.598Z,16.65
2018-03-30T02:32:42.359Z,18.50
2018-03-30T02:35:08.119Z,18.60
2018-03-30T02:37:33.893Z,18.93
2018-03-30T02:39:59.657Z,19.30
2018-03-30T02:42:25.441Z,18.87
2018-03-30T02:44:51.547Z,19.70
2018-03-30T02:47:17.365Z,20.12
2018-03-30T02:49:43.105Z,20.77
2018-03-30T02:52:08.883Z,19.90
2018-03-30T02:54:34.674Z,21.13
2018-03-30T02:57:00.425Z,18.93
2018-03-30T02:59:26.181Z,22.03
2018-03-30T03:01:52.192Z,19.00
2018-03-30T03:04:17.966Z,19.27
2018-03-30T03:06:43.723Z,18.93
2018-03-30T03:09:09.480Z,20.63
2018-03-30T03:11:35.241Z,19.33
2018-03-30T03:14:00.989Z,20.90
2018-03-30T03:16:26.769Z,20.60
2018-03-30T03:18:52.521Z,20.60
2018-03-30T03:21:18.280Z,19.67
2018-03-30T03:23:44.170Z,19.80
2018-03-30T03:26:09.956Z,21.40
2018-03-30T03:28:35.724Z,19.93
2018-03-30T03:31:01.497Z,21.80
2018-03-30T03:33:27.269Z,23.47
2018-03-30T03:35:53.047Z,21.87
2018-03-30T03:38:18.804Z,21.03
2018-03-30T03:40:44.766Z,19.40
2018-03-30T03:43:10.569Z,21.03
2018-03-30T03:45:36.338Z,20.00
2018-03-30T03:48:02.084Z,19.10
2018-03-30T03:50:27.866Z,19.97
2018-03-30T03:52:53.641Z,20.90
2018-03-30T03:55:19.400Z,21.87
2018-03-30T03:57:45.224Z,21.17
2018-03-30T04:00:11.008Z,21.97
2018-03-30T04:02:36.769Z,22.63
2018-03-30T04:05:02.539Z,20.03
2018-03-30T04:07:28.314Z,20.87
2018-03-30T04:09:54.049Z,21.30
2018-03-30T04:12:19.819Z,23.20
2018-03-30T04:14:46.048Z,22.60
2018-03-30T04:17:11.811Z,26.27
2018-03-30T04:19:37.561Z,23.47
2018-03-30T04:22:03.338Z,24.63
2018-03-30T04:24:29.120Z,26.37
2018-03-30T04:26:54.870Z,30.80
2018-03-30T04:29:20.659Z,26.77
2018-03-30T04:31:46.485Z,25.63
2018-03-30T04:34:12.240Z,20.93
2018-03-30T04:36:38.009Z,22.73
2018-03-30T04:39:04.763Z,26.93
2018-03-30T04:41:30.574Z,22.62
2018-03-30T04:43:56.337Z,21.80
2018-03-30T04:46:22.090Z,21.37
2018-03-30T04:48:47.865Z,21.47
2018-03-30T04:51:13.614Z,19.67
2018-03-30T04:53:39.849Z,20.90
2018-03-30T04:56:05.657Z,23.08
2018-03-30T04:58:31.428Z,22.53
2018-03-30T05:00:57.168Z,21.53
2018-03-30T05:03:22.950Z,23.00
2018-03-30T05:05:48.728Z,21.20
2018-03-30T05:08:14.497Z,20.80
2018-03-30T05:10:40.693Z,20.43
2018-03-30T05:13:06.490Z,24.58
2018-03-30T05:15:32.252Z,22.80
2018-03-30T05:17:58.046Z,20.13
2018-03-30T05:20:23.984Z,20.17
2018-03-30T05:22:49.777Z,21.90
2018-03-30T05:25:15.565Z,20.47
2018-03-30T05:27:41.385Z,18.13
2018-03-30T05:30:07.144Z,19.90
2018-03-30T05:32:32.924Z,20.70
2018-03-30T05:34:58.694Z,21.00
2018-03-30T05:37:24.437Z,18.60
2018-03-30T05:39:50.221Z,18.37
2018-03-30T05:42:15.988Z,17.37
2018-03-30T05:44:41.750Z,18.17
2018-03-30T05:47:07.533Z,18.23
2018-03-30T05:49:33.309Z,17.53
2018-03-30T05:51:59.373Z,15.70
2018-03-30T05:54:25.199Z,14.98
2018-03-30T05:56:50.938Z,14.73
2018-03-30T05:59:16.696Z,18.10
2018-03-30T06:01:42.493Z,14.20
2018-03-30T06:04:08.233Z,14.13
2018-03-30T06:06:34.005Z,13.50
2018-03-30T06:08:59.777Z,14.27
2018-03-30T06:11:25.517Z,15.27
2018-03-30T06:13:51.294Z,15.00
2018-03-30T06:16:17.110Z,15.40
2018-03-30T06:18:42.860Z,15.07
2018-03-30T06:21:08.629Z,14.43
2018-03-30T06:23:34.536Z,14.90
2018-03-30T06:26:00.330Z,16.67
2018-03-30T06:28:26.108Z,15.70
2018-03-30T06:30:51.889Z,14.93
2018-03-30T06:33:17.651Z,16.17
2018-03-30T06:35:43.396Z,15.90
2018-03-30T06:38:09.190Z,14.73
2018-03-30T06:40:34.961Z,14.70
2018-03-30T06:43:00.716Z,15.47
2018-03-30T06:45:26.512Z,15.20
2018-03-30T06:47:52.257Z,15.13
2018-03-30T06:50:17.997Z,14.10
2018-03-30T06:52:43.968Z,14.20
2018-03-30T06:55:09.721Z,16.60
2018-03-30T06:57:35.468Z,13.97
2018-03-30T07:00:01.257Z,14.30
2018-03-30T07:02:27.009Z,13.13
2018-03-30T07:04:52.768Z,13.70
2018-03-30T07:07:18.510Z,12.27
2018-03-30T07:09:44.263Z,11.70
2018-03-30T07:12:10.046Z,13.60
2018-03-30T07:14:35.834Z,13.83
2018-03-30T07:17:01.597Z,13.40
2018-03-30T07:19:27.386Z,11.70
2018-03-30T07:21:53.165Z,10.13
2018-03-30T07:24:19.686Z,12.37
2018-03-30T07:26:45.508Z,10.52
2018-03-30T07:29:11.861Z,11.80
2018-03-30T07:31:37.621Z,10.77
2018-03-30T07:34:03.377Z,11.50
2018-03-30T07:36:29.145Z,11.90
2018-03-30T07:38:55.045Z,11.43
2018-03-30T07:41:20.791Z,10.60
2018-03-30T07:43:46.549Z,10.63
2018-03-30T07:46:12.325Z,11.53
2018-03-30T07:48:38.069Z,11.53
2018-03-30T07:51:03.844Z,11.07
2018-03-30T07:53:29.579Z,10.67
2018-03-30T07:55:55.734Z,10.57
2018-03-30T07:58:21.528Z,9.18
2018-03-30T08:00:47.272Z,9.57
2018-03-30T08:03:13.031Z,9.57
2018-03-30T08:05:38.781Z,8.77
2018-03-30T08:08:04.538Z,10.20
2018-03-30T08:10:30.304Z,8.67
2018-03-30T08:12:56.105Z,10.40
2018-03-30T08:15:21.877Z,9.70
2018-03-30T08:17:47.648Z,9.20
2018-03-30T08:20:13.405Z,9.17
2018-03-30T08:22:39.170Z,7.93
2018-03-30T08:25:04.904Z,9.67
2018-03-30T08:27:30.744Z,9.03
2018-03-30T08:29:56.496Z,8.30
2018-03-30T08:32:22.261Z,9.83
2018-03-30T08:34:48.033Z,10.50
2018-03-30T08:37:13.811Z,9.73
2018-03-30T08:39:39.549Z,11.47
2018-03-30T08:42:05.341Z,9.93
2018-03-30T08:44:31.161Z,9.57
2018-03-30T08:46:56.924Z,9.30
2018-03-30T08:49:22.732Z,10.63
2018-03-30T08:51:48.461Z,9.53
2018-03-30T08:54:14.678Z,9.47
2018-03-30T08:56:40.460Z,9.27
2018-03-30T08:59:06.212Z,9.70
2018-03-30T09:01:31.972Z,9.60
2018-03-30T09:03:57.729Z,9.20
2018-03-30T09:06:23.476Z,8.47
2018-03-30T09:08:49.255Z,12.13
2018-03-30T09:11:15.006Z,8.53
2018-03-30T09:13:40.773Z,9.63
2018-03-30T09:16:06.528Z,8.77
2018-03-30T09:18:32.305Z,9.40
2018-03-30T09:20:58.435Z,8.53
2018-03-30T09:23:24.220Z,9.80
2018-03-30T09:25:49.985Z,9.53
2018-03-30T09:28:15.738Z,9.13
2018-03-30T09:30:41.637Z,9.23
2018-03-30T09:33:13.413Z,9.73
2018-03-30T09:35:39.185Z,10.07
2018-03-30T09:38:05.237Z,9.00
2018-03-30T09:40:30.982Z,9.23
2018-03-30T09:42:56.781Z,8.67
2018-03-30T09:45:22.529Z,8.43
2018-03-30T09:47:48.311Z,8.47
2018-03-30T09:50:14.085Z,9.10
2018-03-30T09:52:39.865Z,9.63
2018-03-30T09:55:05.620Z,9.30
2018-03-30T09:57:31.416Z,9.10
2018-03-30T09:59:57.160Z,8.27
2018-03-30T10:02:28.273Z,8.57
2018-03-30T10:04:58.970Z,9.27
2018-03-30T10:07:24.727Z,8.87
2018-03-30T10:09:50.510Z,8.70
2018-03-30T10:12:16.265Z,9.40
2018-03-30T10:14:42.056Z,9.07
2018-03-30T10:17:07.805Z,8.73
2018-03-30T10:19:33.556Z,7.63
2018-03-30T10:21:59.336Z,9.03
2018-03-30T10:24:25.536Z,13.30
2018-03-30T10:26:51.305Z,8.60
2018-03-30T10:43:51.185Z,10.17
